createdAt,value
2023-04-28T00:02:49.010Z,100798.78
2023-04-28T00:06:01.879Z,100799.53
2023-04-28T00:09:14.271Z,100798.97
2023-04-28T00:12:26.961Z,100798.72
2023-04-28T00:15:39.324Z,100800.72
2023-04-28T00:18:52.081Z,100804.66
2023-04-28T00:22:04.971Z,100800.91
2023-04-28T00:25:17.676Z,100806.81
2023-04-28T00:28:34.610Z,100801.75
2023-04-28T00:31:47.962Z,100794.66
2023-04-28T00:35:00.557Z,100806.34
2023-04-28T00:38:13.188Z,100800.06
2023-04-28T00:41:25.567Z,100796.81
2023-04-28T00:44:38.223Z,100803.84
2023-04-28T00:47:50.873Z,100799.78
2023-04-28T00:51:03.573Z,100800.88
2023-04-28T00:54:16.127Z,100793.75
2023-04-28T00:57:29.551Z,100794.72
2023-04-28T01:00:43.435Z,100790.22
2023-04-28T01:03:56.391Z,100795.00
2023-04-28T01:07:09.282Z,100792.53
2023-04-28T01:10:21.976Z,100790.38
2023-04-28T01:13:34.508Z,100795.53
2023-04-28T01:16:47.489Z,100791.19
2023-04-28T01:19:59.905Z,100802.31
2023-04-28T01:23:16.582Z,100802.03
2023-04-28T01:26:29.228Z,100799.03
2023-04-28T01:29:41.876Z,100807.72
2023-04-28T01:32:54.277Z,100800.94
2023-04-28T01:36:07.297Z,100802.56
2023-04-28T01:39:19.687Z,100803.66
2023-04-28T01:42:32.337Z,100808.94
2023-04-28T01:45:47.061Z,100813.81
2023-04-28T01:48:59.969Z,100802.16
2023-04-28T01:52:12.307Z,100802.06
2023-04-28T01:55:24.956Z,100802.28
2023-04-28T01:58:38.087Z,100797.66
2023-04-28T02:01:51.231Z,100802.81
2023-04-28T02:05:04.146Z,100799.56
2023-04-28T02:08:16.524Z,100800.66
2023-04-28T02:11:29.160Z,100805.16
2023-04-28T02:14:41.601Z,100816.66
2023-04-28T02:17:54.297Z,100813.88
2023-04-28T02:21:11.466Z,100812.78
2023-04-28T02:24:24.127Z,100808.47
2023-04-28T02:27:39.572Z,100814.06
2023-04-28T02:30:52.245Z,100823.69
2023-04-28T02:34:04.587Z,100816.78
2023-04-28T02:37:17.262Z,100812.69
2023-04-28T02:40:29.638Z,100817.75
2023-04-28T02:43:42.458Z,100810.84
2023-04-28T02:46:55.019Z,100812.69
2023-04-28T02:50:09.437Z,100808.56
2023-04-28T02:53:22.033Z,100813.25
2023-04-28T02:56:37.081Z,100815.53
2023-04-28T02:59:49.821Z,100812.97
2023-04-28T03:03:02.685Z,100814.59
2023-04-28T03:06:15.152Z,100817.84
2023-04-28T03:09:27.810Z,100823.47
2023-04-28T03:12:40.181Z,100831.50
2023-04-28T03:15:52.939Z,100829.28
2023-04-28T03:19:05.517Z,100831.66
2023-04-28T03:22:18.189Z,100831.59
2023-04-28T03:25:30.523Z,100838.56
2023-04-28T03:28:43.382Z,100844.38
2023-04-28T03:31:55.750Z,100846.81
2023-04-28T03:35:08.680Z,100843.75
2023-04-28T03:38:21.430Z,100842.81
2023-04-28T03:41:34.137Z,100850.37
2023-04-28T03:44:54.826Z,100852.09
2023-04-28T03:48:07.954Z,100847.53
2023-04-28T03:51:20.436Z,100847.37
2023-04-28T03:54:33.299Z,100851.53
2023-04-28T03:57:45.721Z,100844.97
2023-04-28T04:01:00.849Z,100839.22
2023-04-28T04:04:13.931Z,100838.75
2023-04-28T04:07:26.790Z,100844.69
2023-04-28T04:10:39.486Z,100848.75
2023-04-28T04:13:52.006Z,100848.25
2023-04-28T04:17:04.763Z,100848.81
2023-04-28T04:20:17.489Z,100847.88
2023-04-28T04:23:30.412Z,100851.47
2023-04-28T04:26:42.826Z,100857.03
2023-04-28T04:29:58.376Z,100845.75
2023-04-28T04:33:12.138Z,100856.50
2023-04-28T04:36:24.761Z,100854.75
2023-04-28T04:39:37.102Z,100852.56
2023-04-28T04:42:49.746Z,100864.81
2023-04-28T04:46:04.124Z,100861.00
2023-04-28T04:49:18.060Z,100856.91
2023-04-28T04:52:30.426Z,100855.69
2023-04-28T04:55:43.380Z,100859.28
2023-04-28T04:58:55.821Z,100854.59
2023-04-28T05:02:10.433Z,100859.63
2023-04-28T05:05:23.386Z,100862.09
2023-04-28T05:08:37.041Z,100862.00
2023-04-28T05:11:49.456Z,100858.28
2023-04-28T05:15:02.547Z,100853.31
2023-04-28T05:18:17.284Z,100860.75
2023-04-28T05:21:31.168Z,100861.00
2023-04-28T05:24:44.318Z,100861.13
2023-04-28T05:27:57.206Z,100869.88
2023-04-28T05:31:09.601Z,100865.22
2023-04-28T05:34:22.329Z,100875.97
2023-04-28T05:37:35.121Z,100879.88
2023-04-28T05:40:47.805Z,100872.44
2023-04-28T05:44:00.264Z,100880.94
2023-04-28T05:47:12.942Z,100880.78
2023-04-28T05:50:26.134Z,100877.25
2023-04-28T05:53:39.926Z,100880.22
2023-04-28T05:56:53.356Z,100873.84
2023-04-28T06:00:07.224Z,100872.69
2023-04-28T06:03:25.136Z,100865.81
2023-04-28T06:06:38.049Z,100877.81
2023-04-28T06:09:50.961Z,100870.31
2023-04-28T06:13:04.987Z,100880.50
2023-04-28T06:16:17.783Z,100878.59
2023-04-28T06:19:30.715Z,100880.31
2023-04-28T06:22:43.390Z,100878.78
2023-04-28T06:25:56.117Z,100887.16
2023-04-28T06:29:08.546Z,100875.38
2023-04-28T06:32:21.551Z,100883.59
2023-04-28T06:35:39.048Z,100886.28
2023-04-28T06:38:51.679Z,100883.81
2023-04-28T06:42:04.276Z,100884.66
2023-04-28T06:45:18.847Z,100891.88
2023-04-28T06:48:31.248Z,100889.91
2023-04-28T06:51:43.968Z,100900.25
2023-04-28T06:54:56.355Z,100902.97
2023-04-28T06:58:09.705Z,100889.47
2023-04-28T07:01:22.183Z,100890.47
2023-04-28T07:04:34.953Z,100890.44
2023-04-28T07:07:47.670Z,100898.00
2023-04-28T07:11:04.606Z,100898.88
2023-04-28T07:14:17.525Z,100896.53
2023-04-28T07:17:30.658Z,100887.75
2023-04-28T07:20:43.232Z,100882.09
2023-04-28T07:23:58.878Z,100872.75
2023-04-28T07:27:11.310Z,100881.34
2023-04-28T07:30:27.934Z,100872.56
2023-04-28T07:33:40.764Z,100869.66
2023-04-28T07:36:53.657Z,100867.56
2023-04-28T07:40:07.198Z,100870.03
2023-04-28T07:43:21.190Z,100867.13
2023-04-28T07:46:33.786Z,100867.84
2023-04-28T07:49:46.508Z,100860.19
2023-04-28T07:52:59.011Z,100862.12
2023-04-28T07:56:13.009Z,100860.22
2023-04-28T07:59:25.395Z,100863.09
2023-04-28T08:02:38.103Z,100862.03
2023-04-28T08:05:50.950Z,100861.88
2023-04-28T08:09:05.993Z,100860.44
2023-04-28T08:12:19.190Z,100860.25
2023-04-28T08:15:32.120Z,100856.97
2023-04-28T08:18:45.949Z,100837.00
2023-04-28T08:22:00.132Z,100827.09
2023-04-28T08:25:12.880Z,100829.00
2023-04-28T08:28:25.517Z,100823.75
2023-04-28T08:31:38.627Z,100826.16
2023-04-28T08:34:51.074Z,100823.53
2023-04-28T08:38:03.838Z,100815.88
2023-04-28T08:41:16.514Z,100813.03
2023-04-28T08:44:31.528Z,100807.88
2023-04-28T08:47:47.747Z,100802.38
2023-04-28T08:51:01.858Z,100795.16
2023-04-28T08:54:29.860Z,100805.84
2023-04-28T08:57:46.653Z,100806.69
2023-04-28T09:00:59.016Z,100808.41
2023-04-28T09:04:14.209Z,100797.53
2023-04-28T09:07:27.129Z,100794.31
2023-04-28T09:10:39.845Z,100794.38
2023-04-28T09:13:52.233Z,100790.81
2023-04-28T09:17:12.925Z,100792.06
2023-04-28T09:20:26.634Z,100784.38
2023-04-28T09:23:49.338Z,100782.59
2023-04-28T09:27:07.041Z,100784.47
2023-04-28T09:30:20.488Z,100777.50
2023-04-28T09:33:32.814Z,100781.56
2023-04-28T09:36:45.633Z,100779.47
2023-04-28T09:40:03.496Z,100777.66
2023-04-28T09:43:23.928Z,100770.38
2023-04-28T09:46:36.452Z,100770.78
2023-04-28T09:49:58.533Z,100765.03
2023-04-28T09:53:11.376Z,100759.59
2023-04-28T09:56:25.531Z,100761.22
2023-04-28T09:59:37.961Z,100761.97
2023-04-28T10:02:51.747Z,100758.47
2023-04-28T10:06:04.997Z,100750.53
2023-04-28T10:09:18.046Z,100742.91
2023-04-28T10:12:30.746Z,100734.50
2023-04-28T10:15:43.228Z,100733.91
2023-04-28T10:18:56.517Z,100734.16
2023-04-28T10:22:23.933Z,100728.56
2023-04-28T10:25:37.260Z,100723.28
2023-04-28T10:28:51.079Z,100708.59
2023-04-28T10:32:30.908Z,100716.41
2023-04-28T10:35:47.764Z,100701.50
2023-04-28T10:39:11.123Z,100706.19
2023-04-28T10:42:51.433Z,100692.19
2023-04-28T10:46:08.532Z,100677.28
2023-04-28T10:49:21.260Z,100675.19
2023-04-28T10:52:34.940Z,100675.09
2023-04-28T10:55:47.287Z,100667.84
2023-04-28T10:59:00.319Z,100668.25
2023-04-28T11:02:41.718Z,100655.81
2023-04-28T11:06:18.055Z,100652.66
2023-04-28T11:09:33.188Z,100653.13
2023-04-28T11:13:23.183Z,100640.63
2023-04-28T11:16:35.693Z,100635.50
2023-04-28T11:19:51.402Z,100619.56
2023-04-28T11:23:03.790Z,100626.69
2023-04-28T11:26:17.249Z,100626.50
2023-04-28T11:29:33.640Z,100625.50
2023-04-28T11:32:46.335Z,100624.69
2023-04-28T11:35:58.655Z,100628.56
2023-04-28T11:39:12.093Z,100634.78
2023-04-28T11:42:27.210Z,100615.28
2023-04-28T11:45:40.100Z,100624.22
2023-04-28T11:49:10.722Z,100624.38
2023-04-28T11:52:23.794Z,100628.88
2023-04-28T11:55:38.215Z,100631.50
2023-04-28T11:59:04.629Z,100626.28
2023-04-28T12:02:19.183Z,100612.66
2023-04-28T12:05:35.000Z,100616.19
2023-04-28T12:08:48.768Z,100607.56
2023-04-28T12:12:05.978Z,100603.66
2023-04-28T12:15:21.236Z,100596.03
2023-04-28T12:18:38.869Z,100586.88
2023-04-28T12:22:04.866Z,100585.81
2023-04-28T12:25:19.368Z,100584.72
2023-04-28T12:28:38.561Z,100582.50
2023-04-28T12:31:53.027Z,100577.00
2023-04-28T12:35:06.226Z,100571.44
2023-04-28T12:38:18.947Z,100563.13
2023-04-28T12:41:32.447Z,100567.69
2023-04-28T12:44:46.236Z,100570.72
2023-04-28T12:47:58.691Z,100555.72
2023-04-28T12:51:11.376Z,100550.28
2023-04-28T12:54:23.774Z,100538.87
2023-04-28T12:57:39.029Z,100535.44
2023-04-28T13:00:52.056Z,100512.25
2023-04-28T13:04:05.768Z,100515.22
2023-04-28T13:07:18.518Z,100496.09
2023-04-28T13:10:31.198Z,100489.28
2023-04-28T13:13:45.170Z,100485.81
2023-04-28T13:16:58.187Z,100480.97
2023-04-28T13:20:10.792Z,100470.53
2023-04-28T13:23:23.456Z,100471.31
2023-04-28T13:26:35.874Z,100467.44
2023-04-28T13:29:48.583Z,100469.47
2023-04-28T13:33:01.082Z,100467.06
2023-04-28T13:36:13.798Z,100474.47
2023-04-28T13:39:26.130Z,100481.16
2023-04-28T13:42:38.750Z,100480.81
2023-04-28T13:45:52.071Z,100468.50
2023-04-28T13:49:04.899Z,100468.25
2023-04-28T13:52:17.691Z,100469.59
2023-04-28T13:55:30.397Z,100471.56
2023-04-28T13:58:42.765Z,100469.75
2023-04-28T14:01:55.522Z,100469.06
2023-04-28T14:05:08.616Z,100465.09
2023-04-28T14:08:21.537Z,100458.97
2023-04-28T14:11:34.149Z,100452.66
2023-04-28T14:14:48.599Z,100439.34
2023-04-28T14:18:02.076Z,100433.66
2023-04-28T14:21:14.448Z,100432.91
2023-04-28T14:24:27.344Z,100421.47
2023-04-28T14:27:39.707Z,100420.75
2023-04-28T14:30:54.012Z,100420.37
2023-04-28T14:34:07.714Z,100423.06
2023-04-28T14:37:23.179Z,100416.91
2023-04-28T14:40:35.598Z,100411.19
2023-04-28T14:43:48.192Z,100415.00
2023-04-28T14:47:01.464Z,100418.69
2023-04-28T14:50:14.338Z,100418.59
2023-04-28T14:53:26.807Z,100418.84
2023-04-28T14:56:39.496Z,100411.31
2023-04-28T14:59:52.339Z,100418.59
2023-04-28T15:03:05.291Z,100407.94
2023-04-28T15:06:17.934Z,100412.22
2023-04-28T15:09:30.531Z,100411.31
2023-04-28T15:12:43.182Z,100404.44
2023-04-28T15:15:56.260Z,100396.53
2023-04-28T15:19:08.981Z,100389.72
2023-04-28T15:22:22.180Z,100385.72
2023-04-28T15:25:34.528Z,100387.34
2023-04-28T15:28:47.158Z,100378.03
2023-04-28T15:31:59.671Z,100382.53
2023-04-28T15:35:12.465Z,100380.69
2023-04-28T15:38:24.889Z,100379.50
2023-04-28T15:41:37.667Z,100375.44
2023-04-28T15:44:50.573Z,100364.75
2023-04-28T15:48:05.045Z,100364.69
2023-04-28T15:51:17.418Z,100370.84
2023-04-28T15:54:30.020Z,100368.69
2023-04-28T15:57:42.785Z,100366.81
2023-04-28T16:00:55.440Z,100367.66
2023-04-28T16:04:08.249Z,100361.06
2023-04-28T16:07:20.880Z,100356.50
2023-04-28T16:10:33.583Z,100350.03
2023-04-28T16:13:45.937Z,100344.34
2023-04-28T16:16:58.688Z,100338.59
2023-04-28T16:20:11.630Z,100336.91
2023-04-28T16:23:24.339Z,100329.84
2023-04-28T16:26:36.706Z,100335.72
2023-04-28T16:29:50.037Z,100325.06
2023-04-28T16:33:02.418Z,100332.31
2023-04-28T16:36:15.082Z,100337.47
2023-04-28T16:39:27.385Z,100325.47
2023-04-28T16:42:40.091Z,100332.09
2023-04-28T16:45:52.467Z,100326.03
2023-04-28T16:49:05.441Z,100321.13
2023-04-28T16:52:17.849Z,100313.44
2023-04-28T16:55:30.534Z,100314.34
2023-04-28T16:58:43.002Z,100307.50
2023-04-28T17:01:58.978Z,100304.06
2023-04-28T17:05:11.504Z,100297.91
2023-04-28T17:08:24.200Z,100290.59
2023-04-28T17:11:39.487Z,100292.88
2023-04-28T17:14:52.872Z,100287.38
2023-04-28T17:18:05.335Z,100291.84
2023-04-28T17:21:18.027Z,100290.91
2023-04-28T17:24:30.420Z,100280.38
2023-04-28T17:27:43.342Z,100271.22
2023-04-28T17:30:55.957Z,100275.81
2023-04-28T17:34:10.487Z,100267.00
2023-04-28T17:37:23.075Z,100256.81
2023-04-28T17:40:35.672Z,100246.63
2023-04-28T17:43:48.473Z,100245.38
2023-04-28T17:47:01.416Z,100250.87
2023-04-28T17:50:13.892Z,100254.31
2023-04-28T17:53:26.586Z,100265.16
2023-04-28T17:56:38.959Z,100270.72
2023-04-28T17:59:51.683Z,100272.69
2023-04-28T18:03:04.228Z,100274.22
2023-04-28T18:06:17.142Z,100263.00
2023-04-28T18:09:31.562Z,100276.34
2023-04-28T18:12:44.916Z,100277.87
2023-04-28T18:15:57.330Z,100273.97
2023-04-28T18:19:09.962Z,100272.69
2023-04-28T18:22:22.516Z,100273.00
2023-04-28T18:25:36.017Z,100287.78
2023-04-28T18:28:48.338Z,100287.19
2023-04-28T18:32:01.116Z,100286.91
2023-04-28T18:35:15.065Z,100280.78
2023-04-28T18:38:27.750Z,100292.28
2023-04-28T18:41:40.289Z,100273.94
2023-04-28T18:44:58.636Z,100291.28
2023-04-28T18:48:11.600Z,100296.06
2023-04-28T18:51:24.448Z,100294.09
2023-04-28T18:54:36.891Z,100295.81
2023-04-28T18:57:49.936Z,100290.69
2023-04-28T19:01:02.327Z,100284.25
2023-04-28T19:04:15.078Z,100281.75
2023-04-28T19:07:28.349Z,100287.22
2023-04-28T19:10:41.353Z,100284.47
2023-04-28T19:13:54.755Z,100279.94
2023-04-28T19:17:07.459Z,100288.75
2023-04-28T19:20:19.828Z,100287.25
2023-04-28T19:23:35.630Z,100284.47
2023-04-28T19:26:48.080Z,100280.06
2023-04-28T19:30:01.381Z,100292.62
2023-04-28T19:33:13.884Z,100298.84
2023-04-28T19:36:26.562Z,100288.63
2023-04-28T19:39:38.898Z,100291.06
2023-04-28T19:42:51.576Z,100290.69
2023-04-28T19:46:03.983Z,100292.00
2023-04-28T19:49:17.741Z,100297.66
2023-04-28T19:52:30.032Z,100290.09
2023-04-28T19:55:42.998Z,100293.72
2023-04-28T19:58:55.334Z,100293.56
2023-04-28T20:02:08.715Z,100287.97
2023-04-28T20:05:21.468Z,100290.59
2023-04-28T20:08:33.772Z,100282.56
2023-04-28T20:11:46.941Z,100278.13
2023-04-28T20:14:59.696Z,100271.28
2023-04-28T20:18:12.330Z,100274.22
2023-04-28T20:21:26.571Z,100271.00
2023-04-28T20:24:39.562Z,100263.41
2023-04-28T20:27:52.046Z,100256.56
2023-04-28T20:31:08.735Z,100246.12
2023-04-28T20:34:22.245Z,100244.50
2023-04-28T20:37:34.951Z,100250.00
2023-04-28T20:40:47.822Z,100258.94
2023-04-28T20:44:00.866Z,100249.28
2023-04-28T20:47:13.619Z,100256.63
2023-04-28T20:50:28.340Z,100250.22
2023-04-28T20:53:40.745Z,100254.50
2023-04-28T20:56:53.407Z,100253.25
2023-04-28T21:00:07.075Z,100251.88
2023-04-28T21:03:23.635Z,100253.91
2023-04-28T21:06:36.645Z,100248.25
2023-04-28T21:09:49.569Z,100247.13
2023-04-28T21:13:02.061Z,100249.09
2023-04-28T21:16:20.639Z,100249.12
2023-04-28T21:19:33.543Z,100251.56
2023-04-28T21:22:46.669Z,100253.56
2023-04-28T21:25:59.752Z,100243.53
2023-04-28T21:29:12.466Z,100228.22
2023-04-28T21:32:25.634Z,100232.69
2023-04-28T21:35:38.562Z,100237.03
2023-04-28T21:38:50.875Z,100237.09
2023-04-28T21:42:05.845Z,100230.63
2023-04-28T21:45:18.166Z,100231.41
2023-04-28T21:48:30.797Z,100230.66
2023-04-28T21:51:43.309Z,100235.50
2023-04-28T21:54:55.957Z,100235.28
2023-04-28T21:58:08.300Z,100232.75
2023-04-28T22:01:20.988Z,100228.69
2023-04-28T22:04:34.352Z,100229.12
2023-04-28T22:07:48.052Z,100225.81
2023-04-28T22:11:00.944Z,100221.06
2023-04-28T22:14:21.585Z,100220.22
2023-04-28T22:17:46.178Z,100227.88
2023-04-28T22:20:58.519Z,100221.88
2023-04-28T22:24:12.943Z,100224.25
2023-04-28T22:27:25.477Z,100225.03
2023-04-28T22:30:38.139Z,100222.03
2023-04-28T22:33:50.583Z,100223.00
2023-04-28T22:37:03.193Z,100224.81
2023-04-28T22:40:15.540Z,100225.75
2023-04-28T22:43:28.879Z,100221.62
2023-04-28T22:46:41.292Z,100222.22
2023-04-28T22:49:54.033Z,100221.22
2023-04-28T22:53:06.364Z,100215.38
2023-04-28T22:56:19.024Z,100223.00
2023-04-28T22:59:32.679Z,100221.47
2023-04-28T23:02:45.484Z,100221.13
2023-04-28T23:05:57.968Z,100217.09
2023-04-28T23:09:10.926Z,100209.34
2023-04-28T23:12:23.240Z,100212.09
2023-04-28T23:15:36.700Z,100207.19
2023-04-28T23:18:49.569Z,100198.88
2023-04-28T23:22:02.188Z,100199.66
2023-04-28T23:25:14.614Z,100201.94
2023-04-28T23:28:27.221Z,100195.03
2023-04-28T23:31:40.075Z,100196.00
2023-04-28T23:34:52.931Z,100189.72
2023-04-28T23:38:05.315Z,100186.16
2023-04-28T23:41:17.977Z,100188.66
2023-04-28T23:44:30.463Z,100185.81
2023-04-28T23:47:43.321Z,100179.78
2023-04-28T23:50:56.586Z,100184.81
2023-04-28T23:54:09.591Z,100181.78
2023-04-28T23:57:21.964Z,100178.25
